Adner, Louisiana
Current Conditions -  °F | °C
As of 11:58 AM on Wednesday 26 Nov 2014 (Local Time) from KBAD Reporting Station
Clear Clear  
Wind Chill: 64°   Ceiling: Unl
Heat Index: 64°   Visibility: 10mi
Dew Point: 31°   Wind: 16mph
Humidity: 29%   Direction: 280°W
Pressure: 30.1"   Gusts: NA
Location:  32.5391°N, 93.5257°W
Report Text: KBAD 261758Z AUTO 28014KT 10SM CLR 18/M01 A3010 RMK AO2 SLP196 T01791006 10179 20017 58009
Loading
Personal Weather Stations






























Interactive Weather Map New forecast layout! Learn more

10-Day Weather Forecast

Advertisements
Track Severe Weather on mobile